sensor_id;sensor_type;location;lat;lon;timestamp;pressure;altitude;pressure_sealevel;temperature;humidity
9139;BME280;4604;48.616;9.548;2022-10-16T00:01:47;96822.66;;;16.68;100.00
9139;BME280;4604;48.616;9.548;2022-10-16T00:04:15;96827.13;;;16.67;100.00
9139;BME280;4604;48.616;9.548;2022-10-16T00:06:42;96819.91;;;16.76;100.00
9139;BME280;4604;48.616;9.548;2022-10-16T00:09:09;96826.22;;;16.75;100.00
9139;BME280;4604;48.616;9.548;2022-10-16T00:11:38;96822.72;;;16.75;100.00
9139;BME280;4604;48.616;9.548;2022-10-16T00:14:07;96838.44;;;16.69;100.00
9139;BME280;4604;48.616;9.548;2022-10-16T00:16:34;96816.19;;;16.62;100.00
9139;BME280;4604;48.616;9.548;2022-10-16T00:19:02;96826.50;;;16.65;100.00
9139;BME280;4604;48.616;9.548;2022-10-16T00:21:33;96810.56;;;16.57;100.00
9139;BME280;4604;48.616;9.548;2022-10-16T00:24:02;96822.25;;;16.56;100.00
9139;BME280;4604;48.616;9.548;2022-10-16T00:26:31;96810.94;;;16.54;100.00
9139;BME280;4604;48.616;9.548;2022-10-16T00:28:58;96810.44;;;16.51;100.00
9139;BME280;4604;48.616;9.548;2022-10-16T00:31:25;96797.06;;;16.59;100.00
9139;BME280;4604;48.616;9.548;2022-10-16T00:33:52;96816.25;;;16.54;100.00
9139;BME280;4604;48.616;9.548;2022-10-16T00:36:20;96820.28;;;16.50;100.00
9139;BME280;4604;48.616;9.548;2022-10-16T00:38:50;96829.47;;;16.47;100.00
9139;BME280;4604;48.616;9.548;2022-10-16T00:41:20;96829.00;;;16.44;100.00
9139;BME280;4604;48.616;9.548;2022-10-16T00:43:49;96839.81;;;16.42;100.00
9139;BME280;4604;48.616;9.548;2022-10-16T00:46:17;96840.56;;;16.36;100.00
9139;BME280;4604;48.616;9.548;2022-10-16T00:48:50;96843.09;;;16.30;100.00
9139;BME280;4604;48.616;9.548;2022-10-16T00:51:19;96841.78;;;16.48;100.00
9139;BME280;4604;48.616;9.548;2022-10-16T00:53:48;96835.44;;;16.50;100.00
9139;BME280;4604;48.616;9.548;2022-10-16T00:56:17;96835.59;;;16.48;100.00
9139;BME280;4604;48.616;9.548;2022-10-16T00:58:44;96844.63;;;16.47;100.00
9139;BME280;4604;48.616;9.548;2022-10-16T01:01:11;96831.84;;;16.42;100.00
9139;BME280;4604;48.616;9.548;2022-10-16T01:03:38;96836.69;;;16.39;100.00
9139;BME280;4604;48.616;9.548;2022-10-16T01:06:15;96836.22;;;16.35;100.00
9139;BME280;4604;48.616;9.548;2022-10-16T01:08:52;96822.75;;;16.29;100.00
9139;BME280;4604;48.616;9.548;2022-10-16T01:11:27;96821.06;;;16.36;100.00
9139;BME280;4604;48.616;9.548;2022-10-16T01:14:03;96826.75;;;16.33;100.00
9139;BME280;4604;48.616;9.548;2022-10-16T01:16:35;96832.22;;;16.31;100.00
9139;BME280;4604;48.616;9.548;2022-10-16T01:19:09;96827.09;;;16.30;100.00
9139;BME280;4604;48.616;9.548;2022-10-16T01:21:40;96828.63;;;16.24;100.00
9139;BME280;4604;48.616;9.548;2022-10-16T01:24:12;96836.44;;;16.25;100.00
9139;BME280;4604;48.616;9.548;2022-10-16T01:29:44;96838.16;;;16.18;100.00
9139;BME280;4604;48.616;9.548;2022-10-16T01:32:17;96835.47;;;16.26;100.00
9139;BME280;4604;48.616;9.548;2022-10-16T01:34:49;96854.09;;;16.26;100.00
9139;BME280;4604;48.616;9.548;2022-10-16T01:37:29;96849.75;;;16.25;100.00
9139;BME280;4604;48.616;9.548;2022-10-16T01:40:00;96840.16;;;16.16;100.00
9139;BME280;4604;48.616;9.548;2022-10-16T01:42:32;96841.31;;;16.22;100.00
9139;BME280;4604;48.616;9.548;2022-10-16T01:45:05;96849.59;;;16.27;100.00
9139;BME280;4604;48.616;9.548;2022-10-16T01:47:34;96840.13;;;16.24;100.00
9139;BME280;4604;48.616;9.548;2022-10-16T01:50:03;96843.25;;;16.28;100.00
9139;BME280;4604;48.616;9.548;2022-10-16T01:52:32;96834.28;;;16.29;100.00
9139;BME280;4604;48.616;9.548;2022-10-16T01:55:03;96830.94;;;16.27;100.00
9139;BME280;4604;48.616;9.548;2022-10-16T01:57:35;96832.78;;;16.26;100.00
9139;BME280;4604;48.616;9.548;2022-10-16T02:00:08;96839.59;;;16.29;100.00
9139;BME280;4604;48.616;9.548;2022-10-16T02:02:38;96835.97;;;16.22;100.00
9139;BME280;4604;48.616;9.548;2022-10-16T02:05:11;96843.75;;;16.32;100.00
9139;BME280;4604;48.616;9.548;2022-10-16T02:07:41;96834.59;;;16.26;100.00
9139;BME280;4604;48.616;9.548;2022-10-16T02:10:08;96826.44;;;16.27;100.00
9139;BME280;4604;48.616;9.548;2022-10-16T02:12:37;96832.72;;;16.35;100.00
9139;BME280;4604;48.616;9.548;2022-10-16T02:15:07;96836.22;;;16.35;100.00
9139;BME280;4604;48.616;9.548;2022-10-16T02:17:34;96834.56;;;16.34;100.00
9139;BME280;4604;48.616;9.548;2022-10-16T02:20:01;96836.38;;;16.34;100.00
9139;BME280;4604;48.616;9.548;2022-10-16T02:22:32;96832.19;;;16.39;100.00
9139;BME280;4604;48.616;9.548;2022-10-16T02:25:03;96838.94;;;16.50;100.00
9139;BME280;4604;48.616;9.548;2022-10-16T02:27:34;96827.53;;;16.41;100.00
9139;BME280;4604;48.616;9.548;2022-10-16T02:30:07;96832.34;;;16.38;100.00
9139;BME280;4604;48.616;9.548;2022-10-16T02:32:37;96837.44;;;16.47;100.00
9139;BME280;4604;48.616;9.548;2022-10-16T02:35:06;96830.94;;;16.50;100.00
9139;BME280;4604;48.616;9.548;2022-10-16T02:37:34;96832.47;;;16.44;100.00
9139;BME280;4604;48.616;9.548;2022-10-16T02:40:02;96829.81;;;16.44;100.00
9139;BME280;4604;48.616;9.548;2022-10-16T02:42:33;96837.97;;;16.43;100.00
9139;BME280;4604;48.616;9.548;2022-10-16T02:45:00;96842.13;;;16.45;100.00
9139;BME280;4604;48.616;9.548;2022-10-16T02:47:28;96838.63;;;16.45;100.00
9139;BME280;4604;48.616;9.548;2022-10-16T02:49:55;96843.31;;;16.43;100.00
9139;BME280;4604;48.616;9.548;2022-10-16T02:52:21;96841.06;;;16.55;100.00
9139;BME280;4604;48.616;9.548;2022-10-16T02:54:48;96834.78;;;16.71;100.00
9139;BME280;4604;48.616;9.548;2022-10-16T02:57:15;96814.34;;;16.63;100.00
9139;BME280;4604;48.616;9.548;2022-10-16T02:59:41;96825.38;;;16.75;100.00
9139;BME280;4604;48.616;9.548;2022-10-16T03:02:08;96832.75;;;16.73;100.00
9139;BME280;4604;48.616;9.548;2022-10-16T03:04:36;96836.56;;;16.78;100.00
9139;BME280;4604;48.616;9.548;2022-10-16T03:07:03;96835.72;;;16.78;100.00
9139;BME280;4604;48.616;9.548;2022-10-16T03:09:30;96837.63;;;16.69;100.00
9139;BME280;4604;48.616;9.548;2022-10-16T03:11:57;96835.38;;;16.58;100.00
9139;BME280;4604;48.616;9.548;2022-10-16T03:14:23;96840.06;;;16.56;100.00
9139;BME280;4604;48.616;9.548;2022-10-16T03:16:50;96842.72;;;16.56;100.00
9139;BME280;4604;48.616;9.548;2022-10-16T03:19:17;96845.69;;;16.61;100.00
9139;BME280;4604;48.616;9.548;2022-10-16T03:21:45;96842.72;;;16.56;100.00
9139;BME280;4604;48.616;9.548;2022-10-16T03:24:12;96837.72;;;16.76;100.00
9139;BME280;4604;48.616;9.548;2022-10-16T03:26:39;96840.00;;;16.64;100.00
9139;BME280;4604;48.616;9.548;2022-10-16T03:29:06;96840.09;;;16.71;100.00
9139;BME280;4604;48.616;9.548;2022-10-16T03:31:33;96827.38;;;16.58;100.00
9139;BME280;4604;48.616;9.548;2022-10-16T03:33:59;96834.16;;;16.60;100.00
9139;BME280;4604;48.616;9.548;2022-10-16T03:36:26;96827.19;;;16.59;100.00
9139;BME280;4604;48.616;9.548;2022-10-16T03:38:54;96829.78;;;16.67;100.00
9139;BME280;4604;48.616;9.548;2022-10-16T03:41:21;96834.94;;;16.69;100.00
9139;BME280;4604;48.616;9.548;2022-10-16T03:43:47;96820.22;;;16.58;100.00
9139;BME280;4604;48.616;9.548;2022-10-16T03:46:14;96817.19;;;16.61;100.00
9139;BME280;4604;48.616;9.548;2022-10-16T03:48:41;96831.72;;;16.59;100.00
9139;BME280;4604;48.616;9.548;2022-10-16T03:51:07;96839.16;;;16.63;100.00
9139;BME280;4604;48.616;9.548;2022-10-16T03:53:34;96831.81;;;16.65;100.00
9139;BME280;4604;48.616;9.548;2022-10-16T03:56:02;96838.31;;;16.63;100.00
9139;BME280;4604;48.616;9.548;2022-10-16T03:58:29;96830.88;;;16.58;100.00
9139;BME280;4604;48.616;9.548;2022-10-16T04:00:55;96831.91;;;16.72;100.00
9139;BME280;4604;48.616;9.548;2022-10-16T04:03:22;96838.03;;;16.81;100.00
9139;BME280;4604;48.616;9.548;2022-10-16T04:05:49;96847.97;;;16.87;99.00
9139;BME280;4604;48.616;9.548;2022-10-16T04:08:16;96829.53;;;16.77;98.03
9139;BME280;4604;48.616;9.548;2022-10-16T04:10:43;96839.16;;;16.86;99.62
9139;BME280;4604;48.616;9.548;2022-10-16T04:13:12;96841.53;;;16.81;99.26
9139;BME280;4604;48.616;9.548;2022-10-16T04:15:39;96838.25;;;16.71;100.00
9139;BME280;4604;48.616;9.548;2022-10-16T04:18:06;96852.47;;;16.86;99.67
9139;BME280;4604;48.616;9.548;2022-10-16T04:20:33;96857.22;;;16.76;99.84
9139;BME280;4604;48.616;9.548;2022-10-16T04:23:00;96861.38;;;16.79;99.73
9139;BME280;4604;48.616;9.548;2022-10-16T04:25:27;96856.09;;;16.71;99.47
9139;BME280;4604;48.616;9.548;2022-10-16T04:27:53;96869.88;;;16.74;99.98
9139;BME280;4604;48.616;9.548;2022-10-16T04:30:22;96861.88;;;16.74;99.89
9139;BME280;4604;48.616;9.548;2022-10-16T04:32:49;96858.84;;;16.77;99.22
9139;BME280;4604;48.616;9.548;2022-10-16T04:35:16;96867.38;;;16.73;99.92
9139;BME280;4604;48.616;9.548;2022-10-16T04:37:43;96869.50;;;16.77;99.45
9139;BME280;4604;48.616;9.548;2022-10-16T04:40:10;96863.72;;;16.74;100.00
9139;BME280;4604;48.616;9.548;2022-10-16T04:42:36;96863.63;;;16.90;97.73
9139;BME280;4604;48.616;9.548;2022-10-16T04:45:04;96862.97;;;16.88;98.11
9139;BME280;4604;48.616;9.548;2022-10-16T04:47:32;96850.47;;;16.88;96.93
9139;BME280;4604;48.616;9.548;2022-10-16T04:49:59;96861.94;;;16.89;97.76
9139;BME280;4604;48.616;9.548;2022-10-16T04:52:26;96858.19;;;16.83;98.30
9139;BME280;4604;48.616;9.548;2022-10-16T04:54:53;96859.22;;;16.74;98.88
9139;BME280;4604;48.616;9.548;2022-10-16T04:57:20;96867.03;;;16.76;99.47
9139;BME280;4604;48.616;9.548;2022-10-16T04:59:47;96863.53;;;16.75;99.41
9139;BME280;4604;48.616;9.548;2022-10-16T05:02:14;96863.88;;;16.80;97.80
9139;BME280;4604;48.616;9.548;2022-10-16T05:04:42;96868.03;;;16.83;98.08
9139;BME280;4604;48.616;9.548;2022-10-16T05:07:08;96868.03;;;16.83;98.90
9139;BME280;4604;48.616;9.548;2022-10-16T05:09:35;96858.47;;;16.65;99.11
9139;BME280;4604;48.616;9.548;2022-10-16T05:12:02;96868.56;;;16.78;98.42
9139;BME280;4604;48.616;9.548;2022-10-16T05:14:29;96862.06;;;16.73;98.34
9139;BME280;4604;48.616;9.548;2022-10-16T05:16:56;96851.88;;;16.76;97.28
9139;BME280;4604;48.616;9.548;2022-10-16T05:19:22;96865.28;;;17.06;95.44
9139;BME280;4604;48.616;9.548;2022-10-16T05:21:50;96876.13;;;17.04;94.88
9139;BME280;4604;48.616;9.548;2022-10-16T05:24:17;96874.84;;;17.00;95.28
9139;BME280;4604;48.616;9.548;2022-10-16T05:26:44;96882.03;;;17.00;94.84
9139;BME280;4604;48.616;9.548;2022-10-16T05:29:10;96885.91;;;17.12;93.79
9139;BME280;4604;48.616;9.548;2022-10-16T05:31:37;96890.88;;;17.15;93.41
9139;BME280;4604;48.616;9.548;2022-10-16T05:34:04;96884.44;;;17.09;93.94
9139;BME280;4604;48.616;9.548;2022-10-16T05:36:30;96881.66;;;17.03;94.38
9139;BME280;4604;48.616;9.548;2022-10-16T05:38:58;96882.19;;;16.98;95.26
9139;BME280;4604;48.616;9.548;2022-10-16T05:41:25;96894.88;;;16.96;95.74
9139;BME280;4604;48.616;9.548;2022-10-16T05:43:52;96885.13;;;16.88;96.00
9139;BME280;4604;48.616;9.548;2022-10-16T05:46:19;96890.03;;;17.00;93.84
9139;BME280;4604;48.616;9.548;2022-10-16T05:48:46;96862.78;;;16.89;94.10
9139;BME280;4604;48.616;9.548;2022-10-16T05:51:14;96887.38;;;17.00;94.47
9139;BME280;4604;48.616;9.548;2022-10-16T05:53:41;96889.91;;;16.93;94.89
9139;BME280;4604;48.616;9.548;2022-10-16T05:56:11;96901.88;;;16.97;95.16
9139;BME280;4604;48.616;9.548;2022-10-16T05:58:39;96904.72;;;16.96;95.62
9139;BME280;4604;48.616;9.548;2022-10-16T06:01:09;96885.00;;;16.82;95.46
9139;BME280;4604;48.616;9.548;2022-10-16T06:03:37;96914.28;;;16.90;95.37
9139;BME280;4604;48.616;9.548;2022-10-16T06:06:11;96916.78;;;17.06;93.21
9139;BME280;4604;48.616;9.548;2022-10-16T06:08:38;96904.06;;;16.94;93.85
9139;BME280;4604;48.616;9.548;2022-10-16T06:11:07;96915.22;;;16.97;93.72
9139;BME280;4604;48.616;9.548;2022-10-16T06:13:35;96915.84;;;16.99;94.04
9139;BME280;4604;48.616;9.548;2022-10-16T06:16:03;96917.91;;;17.12;93.23
9139;BME280;4604;48.616;9.548;2022-10-16T06:18:30;96915.00;;;17.22;91.14
9139;BME280;4604;48.616;9.548;2022-10-16T06:20:57;96908.06;;;17.13;92.41
9139;BME280;4604;48.616;9.548;2022-10-16T06:23:24;96927.31;;;17.23;92.09
9139;BME280;4604;48.616;9.548;2022-10-16T06:25:51;96928.38;;;17.14;92.87
9139;BME280;4604;48.616;9.548;2022-10-16T06:28:18;96927.44;;;17.06;93.70
9139;BME280;4604;48.616;9.548;2022-10-16T06:30:46;96932.53;;;17.16;92.60
9139;BME280;4604;48.616;9.548;2022-10-16T06:33:14;96943.59;;;17.28;93.17
9139;BME280;4604;48.616;9.548;2022-10-16T06:35:41;96945.16;;;17.22;93.77
9139;BME280;4604;48.616;9.548;2022-10-16T06:38:08;96949.75;;;17.28;94.31
9139;BME280;4604;48.616;9.548;2022-10-16T06:40:34;96954.09;;;17.29;94.21
9139;BME280;4604;48.616;9.548;2022-10-16T06:43:01;96946.25;;;17.28;93.97
9139;BME280;4604;48.616;9.548;2022-10-16T06:45:28;96951.22;;;17.31;94.72
9139;BME280;4604;48.616;9.548;2022-10-16T06:47:56;96944.97;;;17.24;94.52
9139;BME280;4604;48.616;9.548;2022-10-16T06:50:22;96955.56;;;17.32;94.33
9139;BME280;4604;48.616;9.548;2022-10-16T06:52:49;96942.59;;;17.29;94.01
9139;BME280;4604;48.616;9.548;2022-10-16T06:55:16;96950.81;;;17.42;93.32
9139;BME280;4604;48.616;9.548;2022-10-16T06:57:43;96950.25;;;17.47;92.95
9139;BME280;4604;48.616;9.548;2022-10-16T07:00:10;96948.59;;;17.46;92.36
9139;BME280;4604;48.616;9.548;2022-10-16T07:02:37;96963.44;;;17.48;92.97
9139;BME280;4604;48.616;9.548;2022-10-16T07:05:06;96968.41;;;17.51;93.16
9139;BME280;4604;48.616;9.548;2022-10-16T07:07:32;96978.88;;;17.68;91.56
9139;BME280;4604;48.616;9.548;2022-10-16T07:09:59;96982.22;;;17.70;91.03
9139;BME280;4604;48.616;9.548;2022-10-16T07:12:26;96987.91;;;17.67;91.14
9139;BME280;4604;48.616;9.548;2022-10-16T07:14:52;96975.94;;;17.63;91.03
9139;BME280;4604;48.616;9.548;2022-10-16T07:17:21;96980.09;;;17.65;91.40
9139;BME280;4604;48.616;9.548;2022-10-16T07:19:47;96975.13;;;17.62;91.50
9139;BME280;4604;48.616;9.548;2022-10-16T07:22:15;96987.75;;;17.68;91.79
9139;BME280;4604;48.616;9.548;2022-10-16T07:24:42;96992.44;;;17.66;92.05
9139;BME280;4604;48.616;9.548;2022-10-16T07:27:09;96997.56;;;17.68;92.41
9139;BME280;4604;48.616;9.548;2022-10-16T07:29:36;96997.22;;;17.71;91.34
9139;BME280;4604;48.616;9.548;2022-10-16T07:32:03;97006.72;;;17.73;91.60
9139;BME280;4604;48.616;9.548;2022-10-16T07:34:30;97009.25;;;17.90;90.68
9139;BME280;4604;48.616;9.548;2022-10-16T07:36:56;96997.56;;;17.91;88.30
9139;BME280;4604;48.616;9.548;2022-10-16T07:39:24;97004.19;;;17.95;88.04
9139;BME280;4604;48.616;9.548;2022-10-16T07:41:51;97014.22;;;17.93;89.32
9139;BME280;4604;48.616;9.548;2022-10-16T07:44:18;97010.63;;;17.86;90.17
9139;BME280;4604;48.616;9.548;2022-10-16T07:46:44;97018.75;;;17.92;89.43
9139;BME280;4604;48.616;9.548;2022-10-16T07:49:11;97033.75;;;17.93;90.28
9139;BME280;4604;48.616;9.548;2022-10-16T07:51:37;97031.72;;;17.95;89.89
9139;BME280;4604;48.616;9.548;2022-10-16T07:54:04;97022.69;;;17.96;88.32
9139;BME280;4604;48.616;9.548;2022-10-16T07:56:37;97022.69;;;17.96;87.57
9139;BME280;4604;48.616;9.548;2022-10-16T08:01:41;97043.22;;;18.11;85.79
9139;BME280;4604;48.616;9.548;2022-10-16T08:04:09;97033.03;;;18.14;85.59
9139;BME280;4604;48.616;9.548;2022-10-16T08:06:38;97048.13;;;18.37;84.33
9139;BME280;4604;48.616;9.548;2022-10-16T08:09:05;97010.34;;;18.10;84.68
9139;BME280;4604;48.616;9.548;2022-10-16T08:11:33;97042.50;;;18.32;85.01
9139;BME280;4604;48.616;9.548;2022-10-16T08:14:01;97007.50;;;18.12;85.33
9139;BME280;4604;48.616;9.548;2022-10-16T08:16:28;97022.94;;;18.16;85.31
9139;BME280;4604;48.616;9.548;2022-10-16T08:18:55;97033.66;;;18.31;84.79
9139;BME280;4604;48.616;9.548;2022-10-16T08:21:22;97006.38;;;18.21;84.31
9139;BME280;4604;48.616;9.548;2022-10-16T08:23:49;97017.16;;;18.28;84.14
9139;BME280;4604;48.616;9.548;2022-10-16T08:26:17;97051.16;;;18.49;84.31
9139;BME280;4604;48.616;9.548;2022-10-16T08:28:44;97061.81;;;18.64;83.96
9139;BME280;4604;48.616;9.548;2022-10-16T08:31:14;97031.03;;;18.53;83.12
9139;BME280;4604;48.616;9.548;2022-10-16T08:33:43;97047.53;;;18.71;81.27
9139;BME280;4604;48.616;9.548;2022-10-16T08:36:12;97033.22;;;18.79;79.13
9139;BME280;4604;48.616;9.548;2022-10-16T08:38:39;97035.16;;;18.70;80.05
9139;BME280;4604;48.616;9.548;2022-10-16T08:41:23;97038.69;;;18.71;82.10
9139;BME280;4604;48.616;9.548;2022-10-16T08:44:34;97045.13;;;18.76;82.49
9139;BME280;4604;48.616;9.548;2022-10-16T08:47:10;97044.28;;;18.91;81.46
9139;BME280;4604;48.616;9.548;2022-10-16T08:49:42;97067.47;;;19.05;80.95
9139;BME280;4604;48.616;9.548;2022-10-16T08:52:11;97027.41;;;18.90;80.11
9139;BME280;4604;48.616;9.548;2022-10-16T08:54:42;97056.66;;;19.13;80.48
9139;BME280;4604;48.616;9.548;2022-10-16T08:57:14;97070.69;;;19.37;81.11
9139;BME280;4604;48.616;9.548;2022-10-16T08:59:43;97075.50;;;19.48;80.28
9139;BME280;4604;48.616;9.548;2022-10-16T09:02:24;97022.59;;;19.22;81.00
9139;BME280;4604;48.616;9.548;2022-10-16T09:07:46;97064.38;;;19.44;81.00
9139;BME280;4604;48.616;9.548;2022-10-16T09:10:30;97070.16;;;19.48;80.07
9139;BME280;4604;48.616;9.548;2022-10-16T09:13:11;97059.00;;;19.44;80.36
9139;BME280;4604;48.616;9.548;2022-10-16T09:15:46;97078.31;;;19.61;78.61
9139;BME280;4604;48.616;9.548;2022-10-16T09:18:25;97083.03;;;19.59;78.97
9139;BME280;4604;48.616;9.548;2022-10-16T09:21:00;97102.88;;;19.86;77.41
9139;BME280;4604;48.616;9.548;2022-10-16T09:23:34;97091.22;;;19.73;77.05
9139;BME280;4604;48.616;9.548;2022-10-16T09:26:02;97114.63;;;19.85;77.12
9139;BME280;4604;48.616;9.548;2022-10-16T09:28:30;97086.69;;;19.73;76.13
9139;BME280;4604;48.616;9.548;2022-10-16T09:30:57;97112.25;;;19.97;76.32
9139;BME280;4604;48.616;9.548;2022-10-16T09:33:30;97116.06;;;20.09;75.50
9139;BME280;4604;48.616;9.548;2022-10-16T09:35:59;97067.53;;;19.98;73.59
9139;BME280;4604;48.616;9.548;2022-10-16T09:38:31;97124.88;;;20.31;73.22
9139;BME280;4604;48.616;9.548;2022-10-16T09:41:00;97092.28;;;20.35;72.50
9139;BME280;4604;48.616;9.548;2022-10-16T09:43:34;97096.63;;;20.36;72.18
9139;BME280;4604;48.616;9.548;2022-10-16T09:46:03;97119.06;;;20.56;71.92
9139;BME280;4604;48.616;9.548;2022-10-16T09:48:36;97093.34;;;20.40;71.68
9139;BME280;4604;48.616;9.548;2022-10-16T09:51:05;97121.75;;;20.56;72.30
9139;BME280;4604;48.616;9.548;2022-10-16T09:53:41;97083.22;;;20.36;72.10
9139;BME280;4604;48.616;9.548;2022-10-16T09:56:09;97116.41;;;20.63;71.81
9139;BME280;4604;48.616;9.548;2022-10-16T09:58:43;97115.03;;;20.73;72.02
9139;BME280;4604;48.616;9.548;2022-10-16T10:01:14;97107.81;;;20.74;72.09
9139;BME280;4604;48.616;9.548;2022-10-16T10:03:43;97094.75;;;20.64;72.78
9139;BME280;4604;48.616;9.548;2022-10-16T10:06:18;97102.84;;;20.71;72.06
9139;BME280;4604;48.616;9.548;2022-10-16T10:08:58;97085.66;;;20.59;71.21
9139;BME280;4604;48.616;9.548;2022-10-16T10:11:53;97131.38;;;20.85;71.17
9139;BME280;4604;48.616;9.548;2022-10-16T10:14:27;97092.06;;;20.64;71.81
9139;BME280;4604;48.616;9.548;2022-10-16T10:17:12;97123.72;;;20.82;71.45
9139;BME280;4604;48.616;9.548;2022-10-16T10:19:47;97116.91;;;20.80;69.88
9139;BME280;4604;48.616;9.548;2022-10-16T10:22:21;97129.94;;;20.83;70.29
9139;BME280;4604;48.616;9.548;2022-10-16T10:25:19;97126.44;;;20.89;70.01
9139;BME280;4604;48.616;9.548;2022-10-16T10:28:03;97111.53;;;20.73;70.50
9139;BME280;4604;48.616;9.548;2022-10-16T10:30:40;97098.50;;;20.70;70.46
9139;BME280;4604;48.616;9.548;2022-10-16T10:33:18;97127.53;;;21.01;70.30
9139;BME280;4604;48.616;9.548;2022-10-16T10:35:55;97118.28;;;21.10;69.72
9139;BME280;4604;48.616;9.548;2022-10-16T10:38:39;97112.72;;;21.19;68.38
9139;BME280;4604;48.616;9.548;2022-10-16T10:44:23;97073.91;;;21.14;66.63
9139;BME280;4604;48.616;9.548;2022-10-16T10:46:56;97111.53;;;21.34;65.66
9139;BME280;4604;48.616;9.548;2022-10-16T10:49:46;97092.28;;;21.17;66.09
9139;BME280;4604;48.616;9.548;2022-10-16T10:52:34;97121.41;;;21.21;67.34
9139;BME280;4604;48.616;9.548;2022-10-16T10:55:14;97128.25;;;21.30;66.41
9139;BME280;4604;48.616;9.548;2022-10-16T10:58:03;97133.44;;;21.31;66.53
9139;BME280;4604;48.616;9.548;2022-10-16T11:00:42;97108.41;;;21.24;67.31
9139;BME280;4604;48.616;9.548;2022-10-16T11:03:24;97094.56;;;21.27;65.08
9139;BME280;4604;48.616;9.548;2022-10-16T11:06:00;97098.91;;;21.28;65.30
9139;BME280;4604;48.616;9.548;2022-10-16T11:08:36;97095.84;;;21.31;65.39
9139;BME280;4604;48.616;9.548;2022-10-16T11:11:10;97095.47;;;21.48;65.26
9139;BME280;4604;48.616;9.548;2022-10-16T11:13:47;97133.78;;;21.90;64.25
9139;BME280;4604;48.616;9.548;2022-10-16T11:16:26;97101.91;;;21.87;63.25
9139;BME280;4604;48.616;9.548;2022-10-16T11:19:02;97109.53;;;22.16;62.28
9139;BME280;4604;48.616;9.548;2022-10-16T11:21:33;97115.97;;;22.35;59.79
9139;BME280;4604;48.616;9.548;2022-10-16T11:24:09;97133.94;;;22.61;58.98
9139;BME280;4604;48.616;9.548;2022-10-16T11:26:41;97130.22;;;22.49;58.11
9139;BME280;4604;48.616;9.548;2022-10-16T11:29:16;97133.56;;;22.44;58.20
9139;BME280;4604;48.616;9.548;2022-10-16T11:31:49;97111.84;;;22.39;57.94
9139;BME280;4604;48.616;9.548;2022-10-16T11:34:23;97117.03;;;22.28;56.39
9139;BME280;4604;48.616;9.548;2022-10-16T11:36:57;97105.00;;;22.04;57.21
9139;BME280;4604;48.616;9.548;2022-10-16T11:39:29;97103.38;;;22.02;57.92
9139;BME280;4604;48.616;9.548;2022-10-16T11:42:01;97097.38;;;22.00;58.87
9139;BME280;4604;48.616;9.548;2022-10-16T11:44:43;97126.97;;;22.27;58.28
9139;BME280;4604;48.616;9.548;2022-10-16T11:47:24;97123.19;;;22.48;58.64
9139;BME280;4604;48.616;9.548;2022-10-16T11:49:55;97107.91;;;22.42;58.27
9139;BME280;4604;48.616;9.548;2022-10-16T11:52:29;97107.22;;;22.67;57.92
9139;BME280;4604;48.616;9.548;2022-10-16T11:55:12;97062.38;;;22.47;55.97
9139;BME280;4604;48.616;9.548;2022-10-16T11:57:45;97084.97;;;22.91;56.22
9139;BME280;4604;48.616;9.548;2022-10-16T12:00:21;97107.50;;;23.10;55.86
9139;BME280;4604;48.616;9.548;2022-10-16T12:02:55;97092.63;;;23.01;54.65
9139;BME280;4604;48.616;9.548;2022-10-16T12:05:31;97058.88;;;23.05;54.52
9139;BME280;4604;48.616;9.548;2022-10-16T12:08:07;97082.56;;;23.21;56.15
9139;BME280;4604;48.616;9.548;2022-10-16T12:10:37;97109.81;;;23.45;56.87
9139;BME280;4604;48.616;9.548;2022-10-16T12:13:05;97086.19;;;23.40;56.56
9139;BME280;4604;48.616;9.548;2022-10-16T12:16:04;97083.44;;;23.54;54.12
9139;BME280;4604;48.616;9.548;2022-10-16T12:18:31;97078.53;;;23.44;53.20
9139;BME280;4604;48.616;9.548;2022-10-16T12:20:59;97051.31;;;23.20;54.51
9139;BME280;4604;48.616;9.548;2022-10-16T12:23:31;97077.91;;;23.42;53.72
9139;BME280;4604;48.616;9.548;2022-10-16T12:29:32;97077.00;;;23.16;54.37
9139;BME280;4604;48.616;9.548;2022-10-16T12:32:27;97097.03;;;23.34;54.80
9139;BME280;4604;48.616;9.548;2022-10-16T12:35:21;97073.16;;;23.37;54.40
9139;BME280;4604;48.616;9.548;2022-10-16T12:37:50;97100.28;;;23.42;54.34
9139;BME280;4604;48.616;9.548;2022-10-16T12:40:27;97073.16;;;23.37;53.90
9139;BME280;4604;48.616;9.548;2022-10-16T12:42:56;97051.19;;;23.40;53.24
9139;BME280;4604;48.616;9.548;2022-10-16T12:45:32;97068.88;;;23.29;53.99
9139;BME280;4604;48.616;9.548;2022-10-16T12:48:01;97107.28;;;23.50;53.77
9139;BME280;4604;48.616;9.548;2022-10-16T12:50:34;97061.22;;;23.26;53.60
9139;BME280;4604;48.616;9.548;2022-10-16T12:53:16;97080.13;;;23.52;53.53
9139;BME280;4604;48.616;9.548;2022-10-16T12:55:55;97080.31;;;23.18;52.81
9139;BME280;4604;48.616;9.548;2022-10-16T12:58:54;97077.91;;;22.97;53.54
9139;BME280;4604;48.616;9.548;2022-10-16T13:01:37;97100.38;;;23.29;53.02
9139;BME280;4604;48.616;9.548;2022-10-16T13:04:31;97120.09;;;23.55;51.83
9139;BME280;4604;48.616;9.548;2022-10-16T13:07:19;97066.31;;;23.41;51.85
9139;BME280;4604;48.616;9.548;2022-10-16T13:10:02;97101.25;;;23.55;53.24
9139;BME280;4604;48.616;9.548;2022-10-16T13:13:00;97069.19;;;23.46;52.68
9139;BME280;4604;48.616;9.548;2022-10-16T13:18:31;97104.66;;;23.75;53.30
9139;BME280;4604;48.616;9.548;2022-10-16T13:21:17;97081.00;;;23.77;53.15
9139;BME280;4604;48.616;9.548;2022-10-16T13:23:51;97113.19;;;24.22;53.04
9139;BME280;4604;48.616;9.548;2022-10-16T13:26:33;97071.22;;;24.08;52.18
9139;BME280;4604;48.616;9.548;2022-10-16T13:29:03;97104.59;;;24.32;51.90
9139;BME280;4604;48.616;9.548;2022-10-16T13:31:32;97069.00;;;23.98;50.79
9139;BME280;4604;48.616;9.548;2022-10-16T13:34:01;97124.75;;;24.29;51.40
9139;BME280;4604;48.616;9.548;2022-10-16T13:36:35;97075.88;;;23.94;51.63
9139;BME280;4604;48.616;9.548;2022-10-16T13:39:12;97124.97;;;23.78;50.80
9139;BME280;4604;48.616;9.548;2022-10-16T13:41:40;97113.75;;;23.81;51.67
9139;BME280;4604;48.616;9.548;2022-10-16T13:44:13;97092.63;;;23.78;51.87
9139;BME280;4604;48.616;9.548;2022-10-16T13:46:41;97099.53;;;23.92;51.51
9139;BME280;4604;48.616;9.548;2022-10-16T13:49:15;97067.00;;;23.62;51.30
9139;BME280;4604;48.616;9.548;2022-10-16T13:51:53;97110.22;;;23.80;51.61
9139;BME280;4604;48.616;9.548;2022-10-16T13:54:21;97070.66;;;23.67;50.91
9139;BME280;4604;48.616;9.548;2022-10-16T13:56:48;97128.03;;;23.81;51.61